Aviation Digital Data Service (ADDS)

Output produced by TAFs form (2349 UTC 28 November 2014)
found at http://www.aviationweather.gov/adds/tafs/
 
KPSF 282320Z 2900/2924 25005KT P6SM BKN035 
     FM290200 29004KT P6SM SCT035 
     FM291500 24005KT P6SM OVC100